Time;durP1;ratioP1;P1;durP2;ratioP2;P2;SDS_P1;SDS_P2;PMS_P1;PMS_P2;Temp;Humidity;BMP_temperature;BMP_pressure;BME280_temperature;BME280_humidity;BME280_pressure;Samples;Min_cycle;Max_cycle;Signal;HPM_P1;HPM_P2
2021/05/02 00:01:01;;;;;;;37.25;33.35;;;;;;;;;;5009640;28;20379;-83
2021/05/02 00:03:27;;;;;;;37.33;33.43;;;;;;;;;;5009636;28;20872;-81
2021/05/02 00:05:53;;;;;;;37.22;33.33;;;;;;;;;;5009864;28;20387;-83
2021/05/02 00:08:19;;;;;;;37.03;33.13;;;;;;;;;;5007926;28;20386;-83
2021/05/02 00:10:45;;;;;;;35.27;31.60;;;;;;;;;;5008316;28;20833;-83
2021/05/02 00:13:11;;;;;;;36.87;33.07;;;;;;;;;;5009175;28;20375;-81
2021/05/02 00:15:38;;;;;;;34.95;31.42;;;;;;;;;;5009271;28;20375;-81
2021/05/02 00:18:04;;;;;;;37.60;33.50;;;;;;;;;;5009658;28;20433;-82
2021/05/02 00:20:30;;;;;;;37.90;33.90;;;;;;;;;;5009508;28;20378;-80
2021/05/02 00:22:57;;;;;;;35.70;31.90;;;;;;;;;;5008957;28;20363;-80
2021/05/02 00:25:25;;;;;;;37.13;33.17;;;;;;;;;;5009469;28;20363;-82
2021/05/02 00:27:51;;;;;;;37.17;33.17;;;;;;;;;;5009754;28;20805;-81
2021/05/02 00:30:19;;;;;;;39.05;34.88;;;;;;;;;;5009729;28;20371;-80
2021/05/02 00:32:47;;;;;;;38.90;34.80;;;;;;;;;;5008026;28;20382;-82
2021/05/02 00:35:14;;;;;;;37.60;33.08;;;;;;;;;;5008155;28;20391;-82
2021/05/02 00:37:41;;;;;;;37.33;33.40;;;;;;;;;;5008319;28;20387;-81
2021/05/02 00:40:14;;;;;;;36.42;32.42;;;;;;;;;;5008234;28;20371;-83
2021/05/02 00:42:46;;;;;;;36.90;33.00;;;;;;;;;;5011314;28;20363;-80
2021/05/02 00:45:14;;;;;;;36.57;32.73;;;;;;;;;;5029449;28;20374;-81
2021/05/02 00:47:45;;;;;;;36.03;32.17;;;;;;;;;;5032294;28;20495;-83
2021/05/02 00:50:14;;;;;;;34.72;31.13;;;;;;;;;;5031670;28;20379;-80
2021/05/02 00:52:50;;;;;;;37.65;33.42;;;;;;;;;;5032000;28;20370;-82
2021/05/02 00:55:27;;;;;;;37.10;33.10;;;;;;;;;;5032749;28;20368;-81
2021/05/02 00:58:06;;;;;;;36.55;32.55;;;;;;;;;;5032860;28;20370;-80
2021/05/02 01:00:33;;;;;;;38.08;33.97;;;;;;;;;;5032431;28;20362;-82
2021/05/02 01:03:01;;;;;;;36.53;32.72;;;;;;;;;;5032241;28;20412;-82
2021/05/02 01:05:28;;;;;;;36.37;32.53;;;;;;;;;;5032601;28;20449;-81
2021/05/02 01:08:04;;;;;;;38.38;34.35;;;;;;;;;;5030885;28;20913;-82
2021/05/02 01:10:31;;;;;;;37.30;33.30;;;;;;;;;;5032212;28;20734;-83
2021/05/02 01:13:01;;;;;;;36.40;32.35;;;;;;;;;;5030691;28;20457;-82
2021/05/02 01:15:28;;;;;;;36.28;32.38;;;;;;;;;;5032413;28;20361;-82
2021/05/02 01:18:01;;;;;;;37.42;33.45;;;;;;;;;;5032306;28;20374;-83
2021/05/02 01:20:31;;;;;;;37.40;33.38;;;;;;;;;;5032025;28;20365;-82
2021/05/02 01:23:05;;;;;;;36.72;32.80;;;;;;;;;;5030467;28;20378;-80
2021/05/02 01:25:31;;;;;;;38.42;34.10;;;;;;;;;;5030712;28;20397;-81
2021/05/02 01:27:58;;;;;;;36.10;32.28;;;;;;;;;;5030853;28;20373;-81
2021/05/02 01:30:25;;;;;;;35.43;31.63;;;;;;;;;;5032182;28;20921;-83
2021/05/02 01:32:51;;;;;;;35.47;31.73;;;;;;;;;;5031728;28;20366;-82
2021/05/02 01:35:17;;;;;;;38.05;33.63;;;;;;;;;;5030597;28;20427;-80
2021/05/02 01:37:44;;;;;;;35.53;31.73;;;;;;;;;;5032064;28;20412;-81
2021/05/02 01:40:10;;;;;;;36.55;32.58;;;;;;;;;;5032305;28;21012;-80
2021/05/02 01:42:36;;;;;;;34.65;30.88;;;;;;;;;;5029860;28;20376;-80
2021/05/02 01:45:03;;;;;;;33.67;30.08;;;;;;;;;;5012009;28;20465;-81
2021/05/02 01:47:31;;;;;;;33.72;30.13;;;;;;;;;;5011687;28;20445;-81
2021/05/02 01:50:01;;;;;;;32.20;28.75;;;;;;;;;;5012192;28;20379;-80
2021/05/02 01:52:27;;;;;;;35.05;31.27;;;;;;;;;;5011555;28;20367;-82
2021/05/02 01:54:55;;;;;;;35.97;31.73;;;;;;;;;;5011803;28;20375;-83
2021/05/02 01:57:27;;;;;;;37.30;33.33;;;;;;;;;;5009999;28;20932;-80
2021/05/02 01:59:54;;;;;;;37.00;32.97;;;;;;;;;;5011785;28;20383;-82
2021/05/02 02:02:20;;;;;;;36.40;32.33;;;;;;;;;;5011038;28;20371;-81
2021/05/02 02:04:50;;;;;;;34.70;31.10;;;;;;;;;;5011283;28;20375;-82
2021/05/02 02:07:16;;;;;;;37.10;32.85;;;;;;;;;;5011445;28;20761;-81
2021/05/02 02:09:43;;;;;;;34.85;31.08;;;;;;;;;;5011578;28;20375;-80
2021/05/02 02:12:09;;;;;;;40.58;35.45;;;;;;;;;;5009717;28;20371;-81
2021/05/02 02:14:36;;;;;;;39.53;34.13;;;;;;;;;;5010147;28;20379;-82
2021/05/02 02:17:03;;;;;;;38.33;34.22;;;;;;;;;;5011640;28;20378;-80
2021/05/02 02:19:29;;;;;;;37.45;33.15;;;;;;;;;;5011497;28;20385;-80
2021/05/02 02:21:55;;;;;;;39.08;33.58;;;;;;;;;;5010988;28;20390;-82
2021/05/02 02:24:33;;;;;;;38.80;34.57;;;;;;;;;;5009785;28;20440;-81
2021/05/02 02:27:02;;;;;;;39.10;34.65;;;;;;;;;;5011825;28;20427;-82
2021/05/02 02:29:28;;;;;;;39.95;34.05;;;;;;;;;;5009595;28;20379;-81
2021/05/02 02:31:55;;;;;;;41.22;35.10;;;;;;;;;;5010736;28;20359;-81
2021/05/02 02:34:22;;;;;;;40.97;34.10;;;;;;;;;;5009738;28;20437;-81
2021/05/02 02:36:49;;;;;;;42.65;36.08;;;;;;;;;;5011021;28;20379;-82
2021/05/02 02:39:16;;;;;;;40.78;35.30;;;;;;;;;;5009932;28;20393;-80
2021/05/02 02:41:43;;;;;;;41.92;36.50;;;;;;;;;;5010115;28;20433;-80
2021/05/02 02:44:10;;;;;;;42.38;35.58;;;;;;;;;;5024343;28;20397;-82
2021/05/02 02:46:43;;;;;;;43.50;37.47;;;;;;;;;;5030470;28;20492;-82
2021/05/02 02:49:10;;;;;;;40.38;35.67;;;;;;;;;;5030544;28;20424;-81
2021/05/02 02:51:37;;;;;;;43.40;37.97;;;;;;;;;;5030067;28;20415;-83
2021/05/02 02:54:05;;;;;;;39.30;34.88;;;;;;;;;;5029242;28;20378;-81
2021/05/02 02:56:32;;;;;;;43.05;36.88;;;;;;;;;;5029117;28;20460;-81
2021/05/02 02:59:09;;;;;;;43.45;37.72;;;;;;;;;;5030737;28;20365;-82
2021/05/02 03:01:37;;;;;;;41.00;35.47;;;;;;;;;;5028494;28;20440;-83
2021/05/02 03:04:05;;;;;;;43.22;36.88;;;;;;;;;;5030386;28;20374;-82
2021/05/02 03:06:37;;;;;;;40.90;35.30;;;;;;;;;;5030009;28;20389;-82
2021/05/02 03:09:04;;;;;;;42.80;35.58;;;;;;;;;;5029986;28;20380;-82
2021/05/02 03:11:30;;;;;;;45.75;36.72;;;;;;;;;;5027927;28;20381;-82
2021/05/02 03:13:56;;;;;;;42.70;37.72;;;;;;;;;;5030006;28;20753;-83
2021/05/02 03:16:26;;;;;;;41.17;35.47;;;;;;;;;;5030128;28;20380;-82
2021/05/02 03:19:11;;;;;;;44.27;36.43;;;;;;;;;;5030266;28;20399;-82
2021/05/02 03:21:55;;;;;;;40.55;34.30;;;;;;;;;;5029998;28;20443;-82
2021/05/02 03:24:25;;;;;;;44.33;37.00;;;;;;;;;;5030060;28;20427;-82
2021/05/02 03:26:56;;;;;;;42.45;35.78;;;;;;;;;;5030203;28;20385;-83
2021/05/02 03:29:22;;;;;;;39.55;35.25;;;;;;;;;;5030185;28;20376;-82
2021/05/02 03:31:49;;;;;;;46.50;36.60;;;;;;;;;;5027924;28;20362;-82
2021/05/02 03:34:18;;;;;;;43.17;36.20;;;;;;;;;;5029901;28;20382;-80
2021/05/02 03:36:49;;;;;;;41.87;36.07;;;;;;;;;;5028271;28;20465;-82
2021/05/02 03:39:16;;;;;;;37.83;33.15;;;;;;;;;;5029882;28;20374;-81
2021/05/02 03:41:41;;;;;;;41.15;35.67;;;;;;;;;;5029222;28;20843;-80
2021/05/02 03:44:07;;;;;;;44.15;36.78;;;;;;;;;;5015760;28;20437;-80
2021/05/02 03:46:34;;;;;;;43.97;37.77;;;;;;;;;;5008520;28;20395;-83
2021/05/02 03:49:01;;;;;;;45.60;37.40;;;;;;;;;;5008565;28;20441;-82
2021/05/02 03:51:28;;;;;;;45.25;37.95;;;;;;;;;;5009845;28;20812;-81
2021/05/02 03:53:55;;;;;;;43.80;36.77;;;;;;;;;;5010278;28;20364;-80
2021/05/02 03:56:34;;;;;;;47.90;39.22;;;;;;;;;;5010009;28;20374;-83
2021/05/02 03:59:09;;;;;;;41.60;35.90;;;;;;;;;;5010246;28;20375;-82
2021/05/02 04:01:36;;;;;;;42.47;35.15;;;;;;;;;;5009569;28;20379;-80
2021/05/02 04:04:02;;;;;;;44.80;37.30;;;;;;;;;;5009795;28;20377;-83
2021/05/02 04:06:28;;;;;;;44.00;36.90;;;;;;;;;;5009910;28;20387;-81
2021/05/02 04:08:54;;;;;;;45.17;37.22;;;;;;;;;;5010139;28;20374;-80
2021/05/02 04:11:21;;;;;;;47.78;39.53;;;;;;;;;;5009327;28;20363;-82
2021/05/02 04:13:47;;;;;;;46.35;39.05;;;;;;;;;;5009902;28;20505;-81
2021/05/02 04:16:13;;;;;;;48.85;39.97;;;;;;;;;;5009762;28;20375;-83
2021/05/02 04:18:39;;;;;;;44.70;37.60;;;;;;;;;;5009916;28;20454;-83
2021/05/02 04:21:05;;;;;;;45.75;37.75;;;;;;;;;;5009102;28;20474;-83
2021/05/02 04:23:33;;;;;;;48.20;39.30;;;;;;;;;;5012228;28;20363;-82
2021/05/02 04:25:59;;;;;;;46.03;38.42;;;;;;;;;;5013172;28;20430;-80
2021/05/02 04:28:25;;;;;;;45.47;38.67;;;;;;;;;;5013301;28;20394;-82
2021/05/02 04:30:51;;;;;;;50.25;40.42;;;;;;;;;;5011626;28;20890;-80
2021/05/02 04:33:17;;;;;;;47.85;39.05;;;;;;;;;;5013465;28;20375;-82
2021/05/02 04:35:43;;;;;;;45.88;38.50;;;;;;;;;;5013392;28;20402;-83
2021/05/02 04:38:09;;;;;;;46.47;38.25;;;;;;;;;;5013184;28;20893;-80
2021/05/02 04:40:35;;;;;;;47.17;39.63;;;;;;;;;;5013036;28;20722;-82
2021/05/02 04:43:01;;;;;;;49.38;41.05;;;;;;;;;;5015534;28;20365;-82
2021/05/02 04:45:27;;;;;;;50.67;40.77;;;;;;;;;;5031697;28;20436;-81
2021/05/02 04:47:53;;;;;;;45.87;38.57;;;;;;;;;;5031561;28;20496;-80
2021/05/02 04:50:19;;;;;;;46.67;38.92;;;;;;;;;;5032965;28;20388;-83
2021/05/02 04:52:45;;;;;;;49.83;40.88;;;;;;;;;;5031111;28;20784;-81
2021/05/02 04:55:11;;;;;;;50.55;40.78;;;;;;;;;;5032749;28;20400;-82
2021/05/02 04:57:37;;;;;;;47.33;39.70;;;;;;;;;;5031341;28;20464;-83
2021/05/02 05:00:04;;;;;;;47.67;39.10;;;;;;;;;;5032863;28;20453;-80
2021/05/02 05:02:29;;;;;;;50.22;40.22;;;;;;;;;;5030766;28;20374;-80
2021/05/02 05:04:55;;;;;;;48.85;39.80;;;;;;;;;;5032677;28;20393;-80
2021/05/02 05:07:21;;;;;;;45.75;38.88;;;;;;;;;;5031358;28;20395;-81
2021/05/02 05:09:47;;;;;;;49.40;40.33;;;;;;;;;;5030903;28;20376;-84
2021/05/02 05:12:13;;;;;;;50.42;41.65;;;;;;;;;;5030868;28;20701;-80
2021/05/02 05:14:39;;;;;;;48.00;39.80;;;;;;;;;;5032346;28;20384;-82
2021/05/02 05:17:05;;;;;;;50.95;42.95;;;;;;;;;;5032409;28;20490;-82
2021/05/02 05:19:31;;;;;;;53.65;43.97;;;;;;;;;;5032098;28;20388;-82
2021/05/02 05:21:57;;;;;;;49.58;41.95;;;;;;;;;;5032022;28;20374;-83
2021/05/02 05:24:23;;;;;;;52.23;42.73;;;;;;;;;;5031986;28;20372;-83
2021/05/02 05:26:49;;;;;;;50.47;41.03;;;;;;;;;;5030474;28;20405;-82
2021/05/02 05:29:15;;;;;;;48.78;39.55;;;;;;;;;;5030913;28;20456;-81
2021/05/02 05:31:41;;;;;;;48.65;39.22;;;;;;;;;;5032014;28;20365;-83
2021/05/02 05:34:07;;;;;;;49.53;40.17;;;;;;;;;;5029407;28;20839;-83
2021/05/02 05:36:33;;;;;;;47.63;39.92;;;;;;;;;;5032584;28;20377;-81
2021/05/02 05:38:59;;;;;;;46.40;38.63;;;;;;;;;;5031617;28;20852;-82
2021/05/02 05:41:25;;;;;;;42.80;37.95;;;;;;;;;;5030086;28;20469;-80
2021/05/02 05:43:51;;;;;;;45.13;37.67;;;;;;;;;;5022649;28;20379;-83
2021/05/02 05:46:17;;;;;;;45.50;38.05;;;;;;;;;;5010591;28;20402;-82
2021/05/02 05:48:43;;;;;;;44.38;37.58;;;;;;;;;;5012035;28;20375;-83
2021/05/02 05:51:09;;;;;;;42.65;35.78;;;;;;;;;;5011794;28;20371;-82
2021/05/02 05:53:38;;;;;;;42.95;36.95;;;;;;;;;;5010618;28;20372;-82
2021/05/02 05:56:04;;;;;;;42.38;36.63;;;;;;;;;;5012314;28;20471;-80
2021/05/02 05:58:32;;;;;;;45.45;39.30;;;;;;;;;;5011960;28;20415;-81
2021/05/02 06:00:58;;;;;;;46.13;39.05;;;;;;;;;;5011599;28;20438;-81
2021/05/02 06:03:24;;;;;;;43.30;36.80;;;;;;;;;;5011828;28;20371;-81
2021/05/02 06:05:50;;;;;;;40.95;36.13;;;;;;;;;;5011407;28;20486;-81
2021/05/02 06:08:16;;;;;;;45.45;37.72;;;;;;;;;;5011700;28;20433;-81
2021/05/02 06:10:42;;;;;;;44.17;37.97;;;;;;;;;;5011301;28;20367;-82
2021/05/02 06:13:08;;;;;;;41.30;36.27;;;;;;;;;;5011381;28;20750;-81
2021/05/02 06:15:34;;;;;;;44.33;38.13;;;;;;;;;;5011475;28;20363;-82
2021/05/02 06:18:00;;;;;;;43.40;38.13;;;;;;;;;;5010386;28;20397;-84
2021/05/02 06:20:26;;;;;;;43.53;37.58;;;;;;;;;;5011047;28;20363;-83
2021/05/02 06:22:53;;;;;;;42.75;37.88;;;;;;;;;;5011382;28;20374;-81
2021/05/02 06:25:19;;;;;;;43.50;37.55;;;;;;;;;;5011473;28;20923;-81
2021/05/02 06:27:46;;;;;;;41.47;36.03;;;;;;;;;;5011065;28;20444;-83
2021/05/02 06:30:12;;;;;;;39.57;35.27;;;;;;;;;;5009977;28;20375;-82
2021/05/02 06:32:38;;;;;;;39.83;35.45;;;;;;;;;;5009448;28;20854;-82
2021/05/02 06:35:05;;;;;;;39.00;34.72;;;;;;;;;;5011627;28;20376;-82
2021/05/02 06:37:31;;;;;;;39.13;34.35;;;;;;;;;;5011275;28;20445;-83
2021/05/02 06:39:57;;;;;;;38.20;34.00;;;;;;;;;;5009632;28;20383;-84
2021/05/02 06:42:24;;;;;;;39.13;33.77;;;;;;;;;;5009408;28;20857;-83
2021/05/02 06:44:51;;;;;;;38.65;33.67;;;;;;;;;;5025844;28;20381;-83
2021/05/02 06:47:17;;;;;;;39.88;34.25;;;;;;;;;;5030530;28;20412;-82
2021/05/02 06:49:43;;;;;;;39.33;34.20;;;;;;;;;;5030741;28;20366;-84
2021/05/02 06:52:09;;;;;;;39.47;35.20;;;;;;;;;;5030397;28;20366;-83
2021/05/02 06:54:35;;;;;;;38.63;34.50;;;;;;;;;;5030667;28;20427;-83
2021/05/02 06:57:01;;;;;;;38.92;34.38;;;;;;;;;;5030702;28;20873;-84
2021/05/02 06:59:27;;;;;;;37.75;33.60;;;;;;;;;;5030094;28;20380;-80
2021/05/02 07:01:53;;;;;;;39.85;34.05;;;;;;;;;;5028945;28;20373;-82
2021/05/02 07:04:19;;;;;;;37.75;33.67;;;;;;;;;;5030425;28;20378;-83
2021/05/02 07:06:45;;;;;;;41.60;35.70;;;;;;;;;;5030379;28;20851;-83
2021/05/02 07:09:11;;;;;;;39.57;35.27;;;;;;;;;;5030234;28;20490;-82
2021/05/02 07:11:37;;;;;;;40.97;34.03;;;;;;;;;;5029786;28;20369;-83
2021/05/02 07:14:03;;;;;;;37.85;32.75;;;;;;;;;;5030221;28;20448;-81
2021/05/02 07:16:30;;;;;;;38.75;34.60;;;;;;;;;;5030248;28;20369;-84
2021/05/02 07:18:56;;;;;;;38.13;33.77;;;;;;;;;;5028765;28;20381;-82
2021/05/02 07:21:22;;;;;;;39.83;34.92;;;;;;;;;;5023857;28;20408;-83
2021/05/02 07:23:50;;;;;;;37.78;33.40;;;;;;;;;;5001373;28;20487;-82
2021/05/02 07:26:16;;;;;;;38.42;34.08;;;;;;;;;;4999702;28;20893;-84
2021/05/02 07:28:42;;;;;;;39.55;33.63;;;;;;;;;;4990628;28;20464;-86
2021/05/02 07:31:10;;;;;;;35.70;31.85;;;;;;;;;;4988962;28;20963;-84
2021/05/02 07:33:36;;;;;;;35.67;31.45;;;;;;;;;;4992805;28;20383;-85
2021/05/02 07:36:03;;;;;;;34.55;30.95;;;;;;;;;;5007103;28;20382;-85
2021/05/02 07:38:29;;;;;;;35.73;31.03;;;;;;;;;;5002806;28;20415;-83
2021/05/02 07:40:56;;;;;;;35.17;30.70;;;;;;;;;;5010305;28;21192;-84
2021/05/02 07:43:22;;;;;;;34.75;31.05;;;;;;;;;;5016953;28;20385;-84
2021/05/02 07:45:48;;;;;;;34.17;30.30;;;;;;;;;;5018033;28;20383;-84
2021/05/02 07:48:14;;;;;;;33.03;29.50;;;;;;;;;;5016622;28;20371;-84
2021/05/02 07:50:40;;;;;;;32.28;28.77;;;;;;;;;;5016091;28;20390;-85
2021/05/02 07:53:06;;;;;;;33.15;29.70;;;;;;;;;;5015549;28;20385;-84
2021/05/02 07:55:32;;;;;;;32.35;28.38;;;;;;;;;;5014672;28;20393;-85
2021/05/02 07:58:00;;;;;;;32.90;29.48;;;;;;;;;;5020477;28;20848;-84
2021/05/02 08:00:26;;;;;;;32.70;29.27;;;;;;;;;;5018504;28;20423;-84
2021/05/02 08:02:53;;;;;;;32.30;28.83;;;;;;;;;;5018742;28;20377;-84
2021/05/02 08:05:19;;;;;;;33.20;29.60;;;;;;;;;;5019929;28;20430;-84
2021/05/02 08:07:45;;;;;;;33.53;29.58;;;;;;;;;;5019552;28;20409;-85
2021/05/02 08:10:14;;;;;;;32.05;28.63;;;;;;;;;;5021691;28;20423;-85
2021/05/02 08:12:41;;;;;;;34.25;30.58;;;;;;;;;;5021908;28;20488;-83
2021/05/02 08:15:08;;;;;;;35.10;31.30;;;;;;;;;;5020792;28;20383;-86
2021/05/02 08:17:34;;;;;;;33.63;30.08;;;;;;;;;;5021406;28;20444;-85
2021/05/02 08:20:03;;;;;;;33.05;29.55;;;;;;;;;;5027025;28;20470;-90
2021/05/02 08:22:29;;;;;;;34.90;31.05;;;;;;;;;;5020023;28;20381;-84
2021/05/02 08:24:55;;;;;;;34.10;30.52;;;;;;;;;;5020903;28;20377;-85
2021/05/02 08:27:21;;;;;;;33.25;29.65;;;;;;;;;;5021138;28;21006;-86
2021/05/02 08:29:47;;;;;;;33.92;30.25;;;;;;;;;;5020500;28;20456;-88
2021/05/02 08:32:13;;;;;;;35.55;31.52;;;;;;;;;;5018263;28;20824;-82
2021/05/02 08:34:39;;;;;;;34.17;30.60;;;;;;;;;;5018666;28;20386;-83
2021/05/02 08:37:06;;;;;;;32.53;29.00;;;;;;;;;;5018618;28;20901;-83
2021/05/02 08:39:33;;;;;;;32.30;28.83;;;;;;;;;;5018707;28;21174;-84
2021/05/02 08:41:59;;;;;;;30.57;27.27;;;;;;;;;;5015412;28;20870;-84
2021/05/02 08:44:29;;;;;;;30.38;27.17;;;;;;;;;;5017486;28;20392;-88
2021/05/02 08:46:55;;;;;;;30.98;27.67;;;;;;;;;;5019199;28;20407;-86
2021/05/02 08:49:21;;;;;;;29.98;26.90;;;;;;;;;;5019288;28;20397;-84
2021/05/02 08:51:48;;;;;;;29.73;26.50;;;;;;;;;;5015322;28;20441;-85
2021/05/02 08:54:15;;;;;;;29.77;26.58;;;;;;;;;;5012977;28;20412;-88
2021/05/02 08:56:41;;;;;;;29.70;26.60;;;;;;;;;;4993512;28;20376;-86
2021/05/02 08:59:08;;;;;;;29.20;26.15;;;;;;;;;;5000447;28;20378;-86
2021/05/02 09:01:34;;;;;;;28.02;25.02;;;;;;;;;;5013103;28;20372;-85
2021/05/02 09:04:04;;;;;;;29.33;26.20;;;;;;;;;;5008625;28;20704;-85
2021/05/02 09:06:31;;;;;;;27.65;24.65;;;;;;;;;;4993510;28;20955;-86
2021/05/02 09:09:07;;;;;;;28.17;24.95;;;;;;;;;;4995586;28;20375;-84
2021/05/02 09:11:36;;;;;;;27.50;24.60;;;;;;;;;;5012899;28;20856;-85
2021/05/02 09:14:03;;;;;;;27.92;24.92;;;;;;;;;;5009011;28;20407;-86
2021/05/02 09:16:43;;;;;;;26.70;23.90;;;;;;;;;;4992159;28;20381;-84
2021/05/02 09:19:09;;;;;;;26.47;23.57;;;;;;;;;;4997196;28;20383;-84
2021/05/02 09:21:35;;;;;;;27.17;24.27;;;;;;;;;;5011498;28;20375;-84
2021/05/02 09:24:06;;;;;;;25.43;22.80;;;;;;;;;;5010221;28;20426;-83
2021/05/02 09:26:33;;;;;;;26.27;23.45;;;;;;;;;;4994271;28;20400;-83
2021/05/02 09:29:05;;;;;;;27.60;24.05;;;;;;;;;;5012919;28;20464;-82
2021/05/02 09:31:32;;;;;;;26.10;23.30;;;;;;;;;;5013024;28;20411;-82
2021/05/02 09:34:18;;;;;;;26.73;23.33;;;;;;;;;;5011442;28;20723;-82
2021/05/02 09:36:51;;;;;;;26.20;23.60;;;;;;;;;;5020831;28;20467;-82
2021/05/02 09:39:36;;;;;;;25.03;22.43;;;;;;;;;;5032797;28;20416;-84
2021/05/02 09:42:06;;;;;;;25.75;22.85;;;;;;;;;;5021977;28;21002;-84
2021/05/02 09:44:42;;;;;;;22.33;20.02;;;;;;;;;;5012694;28;20382;-83
2021/05/02 09:47:23;;;;;;;24.63;21.88;;;;;;;;;;5022811;28;20494;-81
2021/05/02 09:50:02;;;;;;;25.17;22.63;;;;;;;;;;5027478;28;20378;-81
2021/05/02 09:52:48;;;;;;;24.38;21.88;;;;;;;;;;5013612;28;20794;-81
2021/05/02 09:58:19;;;;;;;21.80;19.60;;;;;;;;;;5012313;28;20404;-81
2021/05/02 10:00:54;;;;;;;23.65;20.45;;;;;;;;;;5010933;28;20454;-81
2021/05/02 10:03:25;;;;;;;23.67;21.17;;;;;;;;;;5011702;28;20450;-82
2021/05/02 10:05:52;;;;;;;24.13;21.52;;;;;;;;;;5014429;28;20749;-84
2021/05/02 10:08:20;;;;;;;23.05;20.70;;;;;;;;;;5011955;28;20364;-83
2021/05/02 10:10:46;;;;;;;24.08;21.50;;;;;;;;;;5010121;28;20387;-81
2021/05/02 10:13:12;;;;;;;22.90;20.70;;;;;;;;;;5009841;28;20419;-81
2021/05/02 10:15:39;;;;;;;24.25;21.65;;;;;;;;;;5008613;28;20387;-80
2021/05/02 10:18:05;;;;;;;22.60;20.30;;;;;;;;;;5009726;28;20469;-81
2021/05/02 10:20:31;;;;;;;23.40;20.90;;;;;;;;;;5023573;28;20482;-84
2021/05/02 10:22:57;;;;;;;23.42;20.98;;;;;;;;;;5026197;28;20796;-81
2021/05/02 10:25:23;;;;;;;22.87;20.57;;;;;;;;;;5029158;28;20380;-81
2021/05/02 10:27:51;;;;;;;23.08;20.65;;;;;;;;;;5031260;28;20547;-81
2021/05/02 10:30:21;;;;;;;23.20;20.77;;;;;;;;;;5031061;28;20409;-81
2021/05/02 10:33:00;;;;;;;22.77;20.40;;;;;;;;;;5028609;28;20372;-81
2021/05/02 10:35:41;;;;;;;24.50;22.00;;;;;;;;;;5031010;28;20448;-82
2021/05/02 10:38:07;;;;;;;23.10;20.70;;;;;;;;;;5029602;28;20362;-82
2021/05/02 10:40:33;;;;;;;21.83;19.60;;;;;;;;;;5013965;28;20529;-81
2021/05/02 10:43:03;;;;;;;24.02;21.58;;;;;;;;;;4998196;28;21290;-82
2021/05/02 10:45:42;;;;;;;24.20;21.38;;;;;;;;;;5007652;28;20450;-82
2021/05/02 10:48:09;;;;;;;23.15;20.88;;;;;;;;;;5005565;28;20411;-83
2021/05/02 10:50:37;;;;;;;22.73;20.47;;;;;;;;;;5009210;28;20391;-81
2021/05/02 10:53:10;;;;;;;23.48;20.92;;;;;;;;;;5009172;28;20363;-80
2021/05/02 10:55:48;;;;;;;24.23;21.65;;;;;;;;;;5007664;28;20425;-82
2021/05/02 10:58:24;;;;;;;24.85;22.35;;;;;;;;;;5007439;28;20483;-81
2021/05/02 11:00:54;;;;;;;24.38;21.77;;;;;;;;;;5006314;28;20796;-82
2021/05/02 11:03:39;;;;;;;23.70;21.23;;;;;;;;;;5009307;28;20382;-82
2021/05/02 11:06:07;;;;;;;24.45;21.95;;;;;;;;;;4991018;28;20424;-82
2021/05/02 11:08:49;;;;;;;25.55;23.00;;;;;;;;;;4991252;28;20377;-81
2021/05/02 11:11:30;;;;;;;23.75;21.30;;;;;;;;;;4990778;28;20455;-82
2021/05/02 11:16:38;;;;;;;24.73;22.25;;;;;;;;;;4991534;28;20460;-82
2021/05/02 11:19:05;;;;;;;24.02;21.48;;;;;;;;;;4991401;28;20384;-81
2021/05/02 11:22:19;;;;;;;25.00;22.30;;;;;;;;;;4990926;28;20938;-82
2021/05/02 11:24:50;;;;;;;23.90;20.80;;;;;;;;;;4997457;28;20838;-82
2021/05/02 11:32:30;;;;;;;22.83;20.52;;;;;;;;;;4998721;28;20363;-81
2021/05/02 11:34:56;;;;;;;24.45;21.80;;;;;;;;;;4999626;28;20387;-82
2021/05/02 11:37:39;;;;;;;24.33;21.83;;;;;;;;;;5006071;28;21207;-82
2021/05/02 11:40:24;;;;;;;25.02;22.33;;;;;;;;;;5007733;28;20399;-83
2021/05/02 11:43:00;;;;;;;23.90;21.42;;;;;;;;;;5008476;28;20443;-87
2021/05/02 11:45:40;;;;;;;24.13;21.63;;;;;;;;;;5007027;28;20429;-82
2021/05/02 11:48:07;;;;;;;25.10;22.50;;;;;;;;;;5006073;28;20474;-82
2021/05/02 11:50:46;;;;;;;24.50;22.00;;;;;;;;;;5009949;28;20371;-82
2021/05/02 11:53:12;;;;;;;24.87;22.23;;;;;;;;;;5008427;28;20371;-83
2021/05/02 11:55:40;;;;;;;28.27;24.97;;;;;;;;;;5001281;28;20464;-83
2021/05/02 11:58:22;;;;;;;31.27;27.25;;;;;;;;;;5010438;28;20395;-82
2021/05/02 12:00:49;;;;;;;33.40;29.77;;;;;;;;;;5009642;28;20368;-82
2021/05/02 12:03:16;;;;;;;35.58;31.70;;;;;;;;;;5001704;28;20849;-84
2021/05/02 12:05:56;;;;;;;37.22;33.22;;;;;;;;;;4999400;28;20383;-82
2021/05/02 12:08:23;;;;;;;36.05;32.33;;;;;;;;;;5006850;28;20569;-82
2021/05/02 12:10:53;;;;;;;40.40;36.08;;;;;;;;;;5008774;28;20374;-85
2021/05/02 12:13:31;;;;;;;42.13;37.63;;;;;;;;;;4999327;28;20389;-85
2021/05/02 12:16:01;;;;;;;38.38;34.22;;;;;;;;;;5002037;28;20407;-83
2021/05/02 12:18:48;;;;;;;42.75;36.95;;;;;;;;;;4999733;28;20375;-84
2021/05/02 12:21:17;;;;;;;37.47;33.55;;;;;;;;;;5008820;28;20834;-85
2021/05/02 12:23:43;;;;;;;28.75;25.92;;;;;;;;;;5006757;28;20379;-85
2021/05/02 12:26:10;;;;;;;27.15;24.60;;;;;;;;;;5009018;28;20407;-83
2021/05/02 12:28:36;;;;;;;28.13;25.42;;;;;;;;;;5009109;28;20379;-84
2021/05/02 12:31:04;;;;;;;26.20;23.70;;;;;;;;;;5009015;28;20367;-84
2021/05/02 12:33:30;;;;;;;26.33;23.63;;;;;;;;;;5008916;28;20391;-83
2021/05/02 12:35:56;;;;;;;23.83;21.40;;;;;;;;;;5010270;28;20363;-82
2021/05/02 12:38:28;;;;;;;21.95;19.95;;;;;;;;;;5009837;28;20379;-82
2021/05/02 12:40:55;;;;;;;21.52;19.42;;;;;;;;;;5009621;28;20411;-82
2021/05/02 12:43:30;;;;;;;21.88;19.80;;;;;;;;;;5012312;28;20394;-85
2021/05/02 12:45:57;;;;;;;22.35;20.30;;;;;;;;;;5013315;28;20382;-85
2021/05/02 12:48:24;;;;;;;21.08;18.98;;;;;;;;;;5012084;28;20807;-86
2021/05/02 12:50:50;;;;;;;20.65;18.65;;;;;;;;;;5004516;28;20391;-84
2021/05/02 12:53:16;;;;;;;18.90;17.10;;;;;;;;;;5011297;28;20375;-85
2021/05/02 12:55:52;;;;;;;19.47;17.47;;;;;;;;;;5012547;28;20474;-84
2021/05/02 12:58:32;;;;;;;19.55;17.65;;;;;;;;;;5012384;28;20387;-85
2021/05/02 13:01:01;;;;;;;20.83;18.73;;;;;;;;;;5009562;28;20467;-85
2021/05/02 13:03:29;;;;;;;21.33;19.23;;;;;;;;;;5012587;28;20385;-84
2021/05/02 13:06:11;;;;;;;21.05;19.08;;;;;;;;;;5011143;28;20396;-83
2021/05/02 13:08:39;;;;;;;21.95;19.58;;;;;;;;;;5006033;28;21161;-84
2021/05/02 13:11:24;;;;;;;21.40;19.10;;;;;;;;;;5003829;28;20402;-83
2021/05/02 13:14:09;;;;;;;20.45;18.50;;;;;;;;;;5010130;28;20367;-84
2021/05/02 13:17:04;;;;;;;17.55;15.88;;;;;;;;;;5010687;28;20390;-84
2021/05/02 13:19:31;;;;;;;16.80;15.10;;;;;;;;;;4999338;28;20384;-87
2021/05/02 13:22:16;;;;;;;17.02;15.43;;;;;;;;;;5012022;28;20887;-83
2021/05/02 13:25:00;;;;;;;17.15;15.45;;;;;;;;;;5012875;28;20371;-81
2021/05/02 13:27:38;;;;;;;18.38;16.55;;;;;;;;;;5012183;28;20398;-82
2021/05/02 13:30:05;;;;;;;18.65;16.75;;;;;;;;;;5012773;28;20467;-83
2021/05/02 13:32:31;;;;;;;19.37;17.30;;;;;;;;;;5012675;28;20371;-82
2021/05/02 13:34:57;;;;;;;18.70;16.83;;;;;;;;;;5012270;28;20418;-84
2021/05/02 13:37:23;;;;;;;18.88;16.98;;;;;;;;;;5014396;28;20857;-84
2021/05/02 13:39:49;;;;;;;20.00;18.03;;;;;;;;;;5010875;28;20387;-84
2021/05/02 13:42:15;;;;;;;21.33;19.07;;;;;;;;;;5012490;28;20733;-83
2021/05/02 13:44:41;;;;;;;21.43;19.37;;;;;;;;;;5010887;28;20383;-83
2021/05/02 13:47:07;;;;;;;21.70;19.43;;;;;;;;;;5012304;28;20453;-83
2021/05/02 13:49:34;;;;;;;23.35;20.95;;;;;;;;;;5010903;28;20880;-82
2021/05/02 13:52:00;;;;;;;23.80;21.40;;;;;;;;;;5013620;28;20459;-81
2021/05/02 13:54:26;;;;;;;22.42;20.15;;;;;;;;;;5024832;28;20822;-82
2021/05/02 13:56:53;;;;;;;22.52;20.30;;;;;;;;;;5011816;28;20517;-82
2021/05/02 13:59:19;;;;;;;23.65;21.25;;;;;;;;;;5012025;28;20376;-84
2021/05/02 14:01:45;;;;;;;23.00;20.65;;;;;;;;;;5012076;28;20367;-84
2021/05/02 14:04:11;;;;;;;23.67;21.17;;;;;;;;;;5011951;28;20809;-82
2021/05/02 14:06:38;;;;;;;23.90;21.40;;;;;;;;;;5010467;28;20391;-82
2021/05/02 14:09:04;;;;;;;25.52;22.83;;;;;;;;;;5011765;28;20406;-84
2021/05/02 14:11:31;;;;;;;24.98;22.48;;;;;;;;;;5010165;28;20383;-82
2021/05/02 14:13:57;;;;;;;25.10;22.50;;;;;;;;;;5011716;28;20406;-83
2021/05/02 14:16:23;;;;;;;25.48;22.88;;;;;;;;;;5010799;28;20440;-82
2021/05/02 14:18:49;;;;;;;26.67;24.05;;;;;;;;;;5011964;28;20402;-82
2021/05/02 14:21:15;;;;;;;27.02;24.23;;;;;;;;;;5011557;28;20842;-85
2021/05/02 14:24:00;;;;;;;28.73;25.83;;;;;;;;;;5011660;28;20379;-85
2021/05/02 14:26:26;;;;;;;29.58;26.48;;;;;;;;;;5010569;28;20407;-82
2021/05/02 14:28:54;;;;;;;29.02;26.05;;;;;;;;;;5021275;28;20462;-81
2021/05/02 14:31:33;;;;;;;27.55;24.65;;;;;;;;;;5012622;28;20507;-85
2021/05/02 14:36:53;;;;;;;27.38;24.52;;;;;;;;;;5011928;28;20469;-83
2021/05/02 14:39:19;;;;;;;27.67;24.98;;;;;;;;;;5013185;28;20376;-84